createdAt,value
2022-08-26T00:00:14.966Z,54.00
2022-08-26T00:05:18.474Z,53.90
2022-08-26T00:10:23.082Z,53.90
2022-08-26T00:15:29.002Z,53.90
2022-08-26T00:20:34.368Z,53.80
2022-08-26T00:25:42.476Z,53.80
2022-08-26T00:30:48.079Z,53.70
2022-08-26T00:35:54.634Z,53.70
2022-08-26T00:41:00.435Z,53.70
2022-08-26T00:46:15.423Z,54.20
2022-08-26T00:51:23.065Z,53.60
2022-08-26T00:56:32.552Z,53.60
2022-08-26T01:01:36.524Z,53.60
2022-08-26T01:06:44.411Z,53.60
2022-08-26T01:11:51.976Z,53.60
2022-08-26T01:16:55.011Z,53.60
2022-08-26T01:22:00.671Z,53.50
2022-08-26T01:27:09.023Z,53.50
2022-08-26T01:32:15.950Z,53.50
2022-08-26T01:37:21.224Z,53.50
2022-08-26T01:42:28.548Z,53.50
2022-08-26T01:47:34.706Z,53.50
2022-08-26T01:52:42.694Z,53.50
2022-08-26T01:57:49.977Z,53.40
2022-08-26T02:03:12.221Z,53.40
2022-08-26T02:08:20.599Z,53.40
2022-08-26T02:13:32.628Z,53.40
2022-08-26T02:18:39.150Z,53.40
2022-08-26T02:23:42.623Z,53.30
2022-08-26T02:28:52.399Z,53.40
2022-08-26T02:33:55.454Z,53.40
2022-08-26T02:39:00.603Z,53.30
2022-08-26T02:44:07.133Z,53.30
2022-08-26T02:49:10.280Z,53.30
2022-08-26T02:54:13.643Z,53.30
2022-08-26T02:59:18.308Z,53.30
2022-08-26T03:04:21.343Z,53.40
2022-08-26T03:09:28.818Z,53.40
2022-08-26T03:14:33.246Z,53.50
2022-08-26T03:19:36.502Z,53.40
2022-08-26T03:24:39.555Z,53.20
2022-08-26T03:30:01.348Z,53.30
2022-08-26T03:35:04.755Z,53.20
2022-08-26T03:40:10.448Z,53.20
2022-08-26T03:45:17.188Z,53.20
2022-08-26T03:50:24.259Z,53.20
2022-08-26T03:55:31.920Z,53.10
2022-08-26T04:00:36.576Z,53.20
2022-08-26T04:05:39.735Z,53.20
2022-08-26T04:10:43.495Z,53.10
2022-08-26T04:15:48.026Z,53.20
2022-08-26T04:20:51.506Z,53.20
2022-08-26T04:25:54.527Z,53.10
2022-08-26T04:30:59.290Z,53.10
2022-08-26T04:36:03.405Z,53.10
2022-08-26T04:41:15.372Z,53.20
2022-08-26T04:46:24.437Z,53.10
2022-08-26T04:51:28.538Z,53.10
2022-08-26T04:56:33.894Z,53.10
2022-08-26T05:01:39.714Z,53.10
2022-08-26T05:06:42.999Z,53.10
2022-08-26T05:11:48.404Z,53.10
2022-08-26T05:16:56.397Z,53.20
2022-08-26T05:21:59.427Z,53.30
2022-08-26T05:27:03.148Z,53.30
2022-08-26T05:32:16.026Z,53.20
2022-08-26T05:37:19.432Z,53.40
2022-08-26T05:42:23.218Z,54.00
2022-08-26T05:47:27.723Z,54.70
2022-08-26T05:52:30.767Z,55.40
2022-08-26T05:57:37.465Z,55.90
2022-08-26T06:02:44.441Z,56.90
2022-08-26T06:08:08.731Z,57.00
2022-08-26T06:13:13.190Z,57.10
2022-08-26T06:18:21.960Z,57.90
2022-08-26T06:23:42.586Z,57.70
2022-08-26T06:28:45.913Z,57.80
2022-08-26T06:33:51.113Z,57.40
2022-08-26T06:38:56.099Z,57.70
2022-08-26T06:44:00.380Z,57.20
2022-08-26T06:49:05.578Z,57.40
2022-08-26T06:54:09.538Z,57.40
2022-08-26T06:59:13.579Z,57.10
2022-08-26T07:04:20.115Z,57.00
2022-08-26T07:09:27.589Z,57.10
2022-08-26T07:14:31.738Z,57.50
2022-08-26T07:19:36.931Z,58.00
2022-08-26T07:24:42.497Z,57.10
2022-08-26T07:29:46.075Z,57.40
2022-08-26T07:34:50.876Z,57.00
2022-08-26T07:39:53.984Z,56.50
2022-08-26T07:44:57.084Z,57.10
2022-08-26T07:50:02.045Z,56.60
2022-08-26T07:55:08.382Z,56.30
2022-08-26T08:00:15.941Z,56.30
2022-08-26T08:05:23.259Z,56.20
2022-08-26T08:10:37.804Z,56.40
2022-08-26T08:15:42.310Z,56.30
2022-08-26T08:20:59.412Z,56.60
2022-08-26T08:26:11.908Z,56.30
2022-08-26T08:31:38.666Z,56.40
2022-08-26T08:36:46.722Z,56.60
2022-08-26T08:42:06.488Z,56.30
2022-08-26T08:47:19.390Z,56.60
2022-08-26T08:52:30.630Z,56.40
2022-08-26T08:57:46.342Z,56.50
2022-08-26T09:02:58.115Z,56.50
2022-08-26T09:08:11.079Z,56.40
2022-08-26T09:13:25.362Z,56.40
2022-08-26T09:18:41.118Z,56.30
2022-08-26T09:23:51.980Z,56.30
2022-08-26T09:28:58.586Z,56.40
2022-08-26T09:34:17.274Z,56.50
2022-08-26T09:39:33.159Z,56.80
2022-08-26T09:44:51.962Z,56.80
2022-08-26T09:50:04.229Z,56.80
2022-08-26T09:55:21.597Z,57.30
2022-08-26T10:00:29.026Z,56.70
2022-08-26T10:05:37.408Z,56.70
2022-08-26T10:10:46.271Z,56.60
2022-08-26T10:16:00.797Z,56.90
2022-08-26T10:21:08.435Z,56.80
2022-08-26T10:26:19.295Z,57.00
2022-08-26T10:31:29.108Z,56.90
2022-08-26T10:37:13.962Z,56.90
2022-08-26T10:42:26.890Z,56.70
2022-08-26T10:47:36.778Z,56.70
2022-08-26T10:52:55.413Z,56.90
2022-08-26T10:58:09.075Z,56.80
2022-08-26T11:03:27.921Z,56.60
2022-08-26T11:08:31.749Z,56.50
2022-08-26T11:14:01.667Z,56.30
2022-08-26T11:19:06.488Z,56.40
2022-08-26T11:24:09.540Z,56.30
2022-08-26T11:29:34.032Z,56.40
2022-08-26T11:34:57.902Z,56.30
2022-08-26T11:40:03.287Z,56.20
2022-08-26T11:45:19.770Z,56.00
2022-08-26T11:50:26.126Z,56.60
2022-08-26T11:55:29.913Z,55.90
2022-08-26T12:00:45.758Z,55.80
2022-08-26T12:05:52.008Z,55.70
2022-08-26T12:11:04.149Z,55.80
2022-08-26T12:16:08.808Z,55.70
2022-08-26T12:21:16.020Z,55.70
2022-08-26T12:26:26.141Z,55.70
2022-08-26T12:31:33.839Z,55.60
2022-08-26T12:36:41.451Z,55.40
2022-08-26T12:41:52.923Z,55.20
2022-08-26T12:47:03.531Z,54.90
2022-08-26T12:52:07.940Z,54.60
2022-08-26T12:57:11.539Z,54.50
2022-08-26T13:02:37.495Z,54.40
2022-08-26T13:07:40.979Z,54.40
2022-08-26T13:12:44.083Z,54.10
2022-08-26T13:17:48.471Z,54.10
2022-08-26T13:22:58.502Z,54.00
2022-08-26T13:28:02.282Z,53.80
2022-08-26T13:33:06.857Z,53.90
2022-08-26T13:38:22.359Z,54.10
2022-08-26T13:43:37.085Z,54.10
2022-08-26T13:48:41.891Z,54.20
2022-08-26T13:53:47.932Z,54.70
2022-08-26T13:58:51.315Z,55.10
2022-08-26T14:03:57.164Z,55.10
2022-08-26T14:09:00.319Z,55.10
2022-08-26T14:14:03.647Z,54.80
2022-08-26T14:19:09.827Z,54.70
2022-08-26T14:24:12.898Z,54.30
2022-08-26T14:29:16.814Z,54.10
2022-08-26T14:34:21.639Z,53.70
2022-08-26T14:39:25.048Z,53.30
2022-08-26T14:44:31.216Z,52.50
2022-08-26T14:49:35.760Z,52.10
2022-08-26T14:54:38.853Z,52.10
2022-08-26T14:59:49.665Z,52.20
2022-08-26T15:04:54.602Z,52.10
2022-08-26T15:09:57.777Z,52.10
2022-08-26T15:15:00.844Z,52.30
2022-08-26T15:20:06.955Z,52.00
2022-08-26T15:25:11.693Z,52.00
2022-08-26T15:30:16.575Z,52.90
2022-08-26T15:35:21.171Z,52.40
2022-08-26T15:40:26.591Z,52.50
2022-08-26T15:45:29.743Z,52.60
2022-08-26T15:50:34.750Z,52.20
2022-08-26T15:55:37.790Z,51.80
2022-08-26T16:00:41.143Z,51.50
2022-08-26T16:05:45.931Z,51.10
2022-08-26T16:10:51.251Z,51.00
2022-08-26T16:15:54.331Z,50.70
2022-08-26T16:21:13.548Z,50.80
2022-08-26T16:26:19.867Z,50.70
2022-08-26T16:31:23.342Z,50.60
2022-08-26T16:36:27.816Z,50.80
2022-08-26T16:41:33.553Z,51.00
2022-08-26T16:46:37.171Z,51.30
2022-08-26T16:51:41.728Z,51.40
2022-08-26T16:56:44.771Z,51.50
2022-08-26T17:01:47.922Z,51.70
2022-08-26T17:06:52.408Z,51.90
2022-08-26T17:11:55.622Z,52.00
2022-08-26T17:16:59.294Z,52.20
2022-08-26T17:22:06.086Z,52.50
2022-08-26T17:27:09.160Z,52.70
2022-08-26T17:32:12.644Z,52.80
2022-08-26T17:37:17.419Z,52.80
2022-08-26T17:42:20.553Z,52.80
2022-08-26T17:47:35.317Z,52.90
2022-08-26T17:52:40.548Z,53.10
2022-08-26T17:57:44.035Z,53.20
2022-08-26T18:02:57.438Z,53.20
2022-08-26T18:08:01.893Z,53.30
2022-08-26T18:13:05.608Z,53.40
2022-08-26T18:18:08.756Z,53.80
2022-08-26T18:23:13.706Z,53.50
2022-08-26T18:28:16.980Z,53.60
2022-08-26T18:33:21.461Z,53.70
2022-08-26T18:38:28.304Z,53.80
2022-08-26T18:43:31.536Z,53.90
2022-08-26T18:48:36.727Z,54.00
2022-08-26T18:53:42.056Z,54.10
2022-08-26T18:58:45.286Z,54.20
2022-08-26T19:03:48.807Z,54.60
2022-08-26T19:08:53.736Z,54.80
2022-08-26T19:13:56.814Z,55.30
2022-08-26T19:19:01.382Z,55.80
2022-08-26T19:24:12.290Z,56.00
2022-08-26T19:34:24.775Z,56.00
2022-08-26T19:39:29.365Z,55.70
2022-08-26T19:44:49.979Z,55.60
2022-08-26T19:49:54.528Z,56.30
2022-08-26T19:54:59.011Z,56.80
2022-08-26T20:00:03.679Z,57.00
2022-08-26T20:05:08.291Z,57.90
2022-08-26T20:10:14.841Z,58.80
2022-08-26T20:15:17.987Z,59.20
2022-08-26T20:20:38.712Z,59.40
2022-08-26T20:25:43.218Z,60.00
2022-08-26T20:30:46.273Z,60.10
2022-08-26T20:35:49.347Z,60.10
2022-08-26T20:40:56.243Z,59.80
2022-08-26T20:45:59.486Z,59.40
2022-08-26T20:51:03.005Z,59.60
2022-08-26T20:56:09.743Z,58.70
2022-08-26T21:01:19.558Z,58.50
2022-08-26T21:06:22.714Z,58.30
2022-08-26T21:11:28.290Z,58.10
2022-08-26T21:16:31.747Z,58.10
2022-08-26T21:21:35.675Z,58.00
2022-08-26T21:26:40.364Z,57.90
2022-08-26T21:31:46.618Z,57.90
2022-08-26T21:36:50.723Z,57.80
2022-08-26T21:41:55.128Z,57.70
2022-08-26T21:46:58.162Z,57.60
2022-08-26T21:52:04.488Z,57.60
2022-08-26T21:57:08.987Z,57.70
2022-08-26T22:02:13.385Z,57.50
2022-08-26T22:07:17.257Z,57.40
2022-08-26T22:12:21.672Z,57.30
2022-08-26T22:17:24.735Z,57.20
2022-08-26T22:22:28.591Z,57.20
2022-08-26T22:27:33.066Z,57.30
2022-08-26T22:32:43.955Z,57.20
2022-08-26T22:37:48.132Z,57.10
2022-08-26T22:42:57.913Z,57.20
2022-08-26T22:48:05.018Z,57.30
2022-08-26T22:53:08.087Z,57.40
2022-08-26T22:58:14.452Z,57.40
2022-08-26T23:03:18.205Z,57.50
2022-08-26T23:08:21.385Z,57.40
2022-08-26T23:13:25.799Z,57.50
2022-08-26T23:18:28.906Z,57.60
2022-08-26T23:23:32.035Z,57.60
2022-08-26T23:28:38.522Z,57.60
2022-08-26T23:33:55.484Z,57.60
2022-08-26T23:38:58.564Z,57.60
2022-08-26T23:44:05.243Z,57.70
2022-08-26T23:49:08.295Z,57.70
2022-08-26T23:54:11.451Z,57.70
2022-08-26T23:59:15.967Z,57.60
